createdAt,value
2018-06-21T00:00:39.832Z,14.33
2018-06-21T00:01:39.898Z,14.33
2018-06-21T00:02:39.897Z,14.31
2018-06-21T00:03:39.896Z,14.28
2018-06-21T00:04:39.899Z,14.29
2018-06-21T00:05:39.884Z,14.25
2018-06-21T00:06:39.816Z,14.27
2018-06-21T00:07:39.826Z,14.25
2018-06-21T00:08:39.803Z,14.24
2018-06-21T00:09:39.819Z,14.24
2018-06-21T00:10:39.824Z,14.24
2018-06-21T00:11:39.897Z,14.25
2018-06-21T00:12:39.774Z,14.27
2018-06-21T00:13:39.830Z,14.27
2018-06-21T00:14:39.776Z,14.29
2018-06-21T00:15:39.850Z,14.31
2018-06-21T00:16:39.944Z,14.33
2018-06-21T00:17:39.907Z,14.35
2018-06-21T00:18:40.009Z,14.36
2018-06-21T00:19:39.833Z,14.35
2018-06-21T00:26:55.876Z,14.49
2018-06-21T00:27:39.902Z,14.49
2018-06-21T00:32:39.878Z,14.66
2018-06-21T00:33:39.891Z,14.71
2018-06-21T00:34:39.915Z,14.73
2018-06-21T00:35:39.837Z,14.73
2018-06-21T00:36:39.913Z,14.75
2018-06-21T00:37:39.875Z,14.75
2018-06-21T00:38:39.793Z,14.78
2018-06-21T00:39:39.862Z,14.78
2018-06-21T00:40:39.918Z,14.79
2018-06-21T00:41:39.841Z,14.80
2018-06-21T00:42:39.880Z,14.82
2018-06-21T00:43:39.878Z,14.82
2018-06-21T00:44:39.918Z,14.83
2018-06-21T00:45:39.926Z,14.84
2018-06-21T00:46:39.854Z,14.83
2018-06-21T00:47:39.827Z,14.87
2018-06-21T00:48:39.927Z,14.89
2018-06-21T00:49:39.927Z,14.92
2018-06-21T00:50:39.929Z,14.95
2018-06-21T00:51:39.861Z,14.98
2018-06-21T00:52:39.862Z,14.98
2018-06-21T00:53:39.933Z,15.02
2018-06-21T00:54:39.933Z,15.02
2018-06-21T00:55:39.892Z,15.02
2018-06-21T00:56:39.936Z,15.03
2018-06-21T00:57:39.869Z,15.03
2018-06-21T00:58:39.881Z,15.04
2018-06-21T00:59:39.967Z,15.06
2018-06-21T01:00:39.833Z,15.03
2018-06-21T01:01:39.878Z,15.04
2018-06-21T01:02:39.909Z,15.04
2018-06-21T01:03:39.937Z,15.03
2018-06-21T01:04:39.938Z,15.02
2018-06-21T01:05:39.929Z,15.00
2018-06-21T01:06:39.936Z,15.02
2018-06-21T01:07:39.858Z,15.00
2018-06-21T01:08:39.877Z,14.98
2018-06-21T01:09:39.937Z,14.98
2018-06-21T01:10:39.865Z,14.98
2018-06-21T01:11:39.847Z,14.96
2018-06-21T01:12:39.932Z,14.95
2018-06-21T01:13:39.884Z,14.96
2018-06-21T01:14:39.938Z,14.94
2018-06-21T01:15:39.910Z,14.95
2018-06-21T01:16:39.907Z,14.94
2018-06-21T01:17:39.912Z,14.94
2018-06-21T01:18:39.911Z,14.91
2018-06-21T01:19:39.970Z,14.92
2018-06-21T01:20:39.953Z,14.91
2018-06-21T01:21:39.908Z,14.91
2018-06-21T01:22:39.850Z,14.92
2018-06-21T01:23:39.978Z,14.96
2018-06-21T01:24:39.974Z,15.02
2018-06-21T01:25:39.968Z,15.02
2018-06-21T01:26:39.929Z,15.02
2018-06-21T01:27:39.860Z,15.03
2018-06-21T01:28:39.971Z,15.04
2018-06-21T01:29:39.855Z,15.07
2018-06-21T01:30:39.857Z,15.07
2018-06-21T01:31:39.862Z,15.07
2018-06-21T01:32:39.989Z,15.06
2018-06-21T01:33:39.997Z,15.03
2018-06-21T01:34:39.867Z,15.04
2018-06-21T01:35:39.988Z,15.03
2018-06-21T01:36:39.996Z,14.98
2018-06-21T01:37:39.898Z,14.98
2018-06-21T01:38:39.984Z,14.95
2018-06-21T01:39:39.864Z,14.91
2018-06-21T01:40:39.978Z,14.86
2018-06-21T01:41:39.960Z,14.82
2018-06-21T01:42:40.004Z,14.76
2018-06-21T01:43:39.871Z,14.73
2018-06-21T01:44:40.040Z,14.69
2018-06-21T01:45:39.992Z,14.66
2018-06-21T01:46:39.864Z,14.68
2018-06-21T01:47:39.867Z,14.71
2018-06-21T01:48:39.968Z,14.71
2018-06-21T01:49:39.938Z,14.73
2018-06-21T01:50:40.005Z,14.68
2018-06-21T01:51:39.925Z,14.64
2018-06-21T01:52:39.942Z,14.58
2018-06-21T01:53:39.968Z,14.54
2018-06-21T01:54:39.953Z,14.49
2018-06-21T01:55:39.950Z,14.47
2018-06-21T01:56:39.936Z,14.49
2018-06-21T01:57:39.975Z,14.51
2018-06-21T01:58:40.020Z,14.49
2018-06-21T01:59:40.033Z,14.44
2018-06-21T02:00:39.947Z,14.42
2018-06-21T02:01:39.918Z,14.39
2018-06-21T02:02:39.948Z,14.32
2018-06-21T02:03:39.917Z,14.28
2018-06-21T02:04:39.896Z,14.24
2018-06-21T02:05:39.978Z,14.20
2018-06-21T02:06:39.917Z,14.15
2018-06-21T02:07:39.911Z,14.11
2018-06-21T02:08:39.984Z,14.09
2018-06-21T02:09:39.918Z,14.04
2018-06-21T02:10:39.982Z,14.00
2018-06-21T02:11:39.917Z,13.98
2018-06-21T02:12:39.913Z,13.95
2018-06-21T02:13:39.989Z,13.93
2018-06-21T02:14:39.919Z,13.91
2018-06-21T02:15:39.950Z,13.91
2018-06-21T02:16:39.913Z,13.88
2018-06-21T02:17:39.910Z,13.86
2018-06-21T02:18:39.948Z,13.88
2018-06-21T02:19:40.015Z,13.86
2018-06-21T02:20:39.945Z,13.84
2018-06-21T02:21:39.986Z,13.83
2018-06-21T02:22:39.931Z,13.77
2018-06-21T02:23:39.954Z,13.76
2018-06-21T02:24:39.893Z,13.72
2018-06-21T02:25:39.986Z,13.68
2018-06-21T02:26:39.982Z,13.66
2018-06-21T02:27:39.919Z,13.65
2018-06-21T02:28:39.934Z,13.62
2018-06-21T02:29:39.899Z,13.57
2018-06-21T02:30:39.991Z,13.54
2018-06-21T02:31:39.901Z,13.53
2018-06-21T02:32:39.995Z,13.49
2018-06-21T02:33:39.992Z,13.47
2018-06-21T02:34:39.990Z,13.43
2018-06-21T02:35:39.995Z,13.40
2018-06-21T02:36:39.997Z,13.38
2018-06-21T02:37:40.011Z,13.36
2018-06-21T02:38:40.022Z,13.34
2018-06-21T02:39:40.031Z,13.32
2018-06-21T02:40:40.000Z,13.29
2018-06-21T02:41:40.034Z,13.28
2018-06-21T02:42:39.967Z,13.25
2018-06-21T02:43:40.027Z,13.25
2018-06-21T02:44:39.974Z,13.25
2018-06-21T02:45:40.027Z,13.20
2018-06-21T02:46:39.934Z,13.16
2018-06-21T02:47:39.899Z,13.13
2018-06-21T02:48:39.873Z,13.09
2018-06-21T02:49:39.934Z,13.09
2018-06-21T02:50:39.935Z,13.10
2018-06-21T02:51:39.929Z,13.17
2018-06-21T02:52:40.005Z,13.17
2018-06-21T02:53:39.904Z,13.18
2018-06-21T02:54:39.971Z,13.23
2018-06-21T02:55:39.904Z,13.23
2018-06-21T02:56:40.016Z,13.25
2018-06-21T02:57:39.963Z,13.25
2018-06-21T02:58:39.985Z,13.23
2018-06-21T02:59:40.057Z,13.21
2018-06-21T03:00:39.918Z,13.18
2018-06-21T03:01:40.013Z,13.17
2018-06-21T03:02:39.936Z,13.16
2018-06-21T03:03:39.924Z,13.16
2018-06-21T03:04:40.020Z,13.16
2018-06-21T03:05:39.956Z,13.14
2018-06-21T03:06:40.018Z,13.13
2018-06-21T03:07:40.046Z,13.12
2018-06-21T03:08:39.992Z,13.09
2018-06-21T03:09:40.051Z,13.07
2018-06-21T03:10:40.048Z,13.06
2018-06-21T03:11:39.924Z,13.05
2018-06-21T03:12:40.060Z,13.03
2018-06-21T03:13:40.045Z,13.02
2018-06-21T03:14:40.002Z,13.02
2018-06-21T03:15:39.994Z,13.02
2018-06-21T03:16:39.957Z,13.03
2018-06-21T03:17:39.963Z,13.10
2018-06-21T03:18:40.027Z,13.17
2018-06-21T03:19:39.968Z,13.23
2018-06-21T03:20:40.031Z,13.24
2018-06-21T03:21:39.984Z,13.25
2018-06-21T03:22:40.029Z,13.25
2018-06-21T03:23:40.028Z,13.27
2018-06-21T03:24:40.029Z,13.27
2018-06-21T03:25:40.027Z,13.27
2018-06-21T03:26:39.934Z,13.28
2018-06-21T03:27:40.050Z,13.28
2018-06-21T03:28:39.967Z,13.25
2018-06-21T03:29:40.030Z,13.27
2018-06-21T03:30:40.030Z,13.27
2018-06-21T03:31:39.971Z,13.25
2018-06-21T03:32:39.958Z,13.24
2018-06-21T03:33:39.927Z,13.24
2018-06-21T03:34:39.944Z,13.27
2018-06-21T03:35:39.993Z,13.25
2018-06-21T03:36:39.972Z,13.32
2018-06-21T03:37:40.040Z,13.39
2018-06-21T03:38:39.975Z,13.43
2018-06-21T03:39:40.005Z,13.49
2018-06-21T03:40:39.976Z,13.53
2018-06-21T03:41:39.976Z,13.59
2018-06-21T03:42:40.046Z,13.65
2018-06-21T03:43:40.051Z,13.68
2018-06-21T03:44:39.973Z,13.69
2018-06-21T03:45:40.045Z,13.69
2018-06-21T03:46:39.989Z,13.66
2018-06-21T03:47:39.897Z,13.64
2018-06-21T03:48:39.897Z,13.62
2018-06-21T03:49:39.997Z,13.62
2018-06-21T03:50:39.898Z,13.61
2018-06-21T03:51:39.995Z,13.61
2018-06-21T03:52:39.994Z,13.59
2018-06-21T03:53:39.946Z,13.57
2018-06-21T03:54:39.901Z,13.56
2018-06-21T03:55:39.991Z,13.54
2018-06-21T03:56:39.920Z,13.53
2018-06-21T03:57:40.004Z,13.53
2018-06-21T03:58:39.955Z,13.53
2018-06-21T03:59:39.925Z,13.54
2018-06-21T04:00:40.007Z,13.57
2018-06-21T04:01:39.964Z,13.62
2018-06-21T04:02:39.923Z,13.66
2018-06-21T04:03:40.071Z,13.66
2018-06-21T04:04:39.958Z,13.70
2018-06-21T04:05:39.988Z,13.70
2018-06-21T04:06:40.029Z,13.72
2018-06-21T04:07:40.035Z,13.72
2018-06-21T04:08:40.094Z,13.76
2018-06-21T04:09:40.061Z,13.76
2018-06-21T04:10:39.964Z,13.77
2018-06-21T04:11:40.019Z,13.81
2018-06-21T04:12:40.037Z,13.84
2018-06-21T04:13:40.036Z,13.89
2018-06-21T04:14:40.025Z,13.92
2018-06-21T04:15:40.066Z,13.98
2018-06-21T04:16:40.028Z,14.04
2018-06-21T04:17:40.005Z,14.10
2018-06-21T04:18:40.081Z,14.17
2018-06-21T04:19:40.101Z,14.21
2018-06-21T04:20:40.000Z,14.28
2018-06-21T04:21:40.067Z,14.33
2018-06-21T04:22:40.000Z,14.40
2018-06-21T04:23:40.068Z,14.46
2018-06-21T04:24:40.032Z,14.51
2018-06-21T04:25:40.005Z,14.55
2018-06-21T04:26:40.055Z,14.64
2018-06-21T04:27:40.096Z,14.69
2018-06-21T04:28:39.994Z,14.75
2018-06-21T04:29:40.112Z,14.80
2018-06-21T04:30:39.975Z,14.83
2018-06-21T04:31:40.077Z,14.87
2018-06-21T04:32:40.055Z,14.92
2018-06-21T04:33:39.980Z,14.92
2018-06-21T04:34:39.983Z,14.95
2018-06-21T04:35:40.044Z,14.96
2018-06-21T04:36:39.985Z,15.03
2018-06-21T04:37:39.998Z,15.06
2018-06-21T04:38:40.082Z,15.08
2018-06-21T04:39:40.098Z,15.11
2018-06-21T04:40:40.079Z,15.13
2018-06-21T04:41:39.999Z,15.17
2018-06-21T04:42:40.104Z,15.22
2018-06-21T04:43:40.122Z,15.25
2018-06-21T04:44:40.085Z,15.31
2018-06-21T04:45:40.082Z,15.32
2018-06-21T04:46:40.074Z,15.28
2018-06-21T04:47:39.957Z,15.29
2018-06-21T04:48:40.077Z,15.32
2018-06-21T04:49:40.080Z,15.35
2018-06-21T04:50:39.992Z,15.39
2018-06-21T04:51:39.988Z,15.43
2018-06-21T04:52:40.036Z,15.46
2018-06-21T04:53:40.235Z,15.50
2018-06-21T04:54:40.085Z,15.53
2018-06-21T04:55:39.998Z,15.59
2018-06-21T04:56:40.092Z,15.61
2018-06-21T04:57:40.029Z,15.64
2018-06-21T04:58:40.025Z,15.70
2018-06-21T04:59:40.092Z,15.76
2018-06-21T05:00:40.032Z,15.80
2018-06-21T05:01:40.032Z,15.87
2018-06-21T05:02:40.030Z,15.93
2018-06-21T05:03:40.035Z,16.02
2018-06-21T05:04:40.096Z,16.09
2018-06-21T05:05:40.100Z,16.17
2018-06-21T05:06:40.113Z,16.25
2018-06-21T05:07:40.065Z,16.29
2018-06-21T05:08:40.054Z,16.35
2018-06-21T05:09:40.055Z,16.36
2018-06-21T05:10:40.073Z,16.41
2018-06-21T05:11:40.098Z,16.48
2018-06-21T05:12:40.065Z,16.52
2018-06-21T05:13:40.081Z,16.58
2018-06-21T05:14:40.104Z,16.61
2018-06-21T05:15:40.137Z,16.62
2018-06-21T05:16:40.055Z,16.65
2018-06-21T05:17:40.013Z,16.69
2018-06-21T05:18:40.100Z,16.70
2018-06-21T05:19:40.008Z,16.72
2018-06-21T05:20:40.015Z,16.73
2018-06-21T05:21:40.101Z,16.77
2018-06-21T05:22:40.110Z,16.80
2018-06-21T05:23:39.978Z,16.85
2018-06-21T05:24:40.119Z,16.88
2018-06-21T05:25:40.111Z,16.92
2018-06-21T05:26:40.141Z,16.95
2018-06-21T05:27:40.073Z,16.95
2018-06-21T05:28:40.111Z,16.98
2018-06-21T05:29:40.017Z,17.02
2018-06-21T05:30:40.033Z,17.05
2018-06-21T05:31:40.118Z,17.13
2018-06-21T05:32:40.014Z,17.20
2018-06-21T05:33:40.148Z,17.28
2018-06-21T05:34:40.088Z,17.29
2018-06-21T05:35:40.039Z,17.35
2018-06-21T05:36:40.039Z,17.39
2018-06-21T05:37:40.032Z,17.44
2018-06-21T05:38:40.028Z,17.51
2018-06-21T05:39:39.991Z,17.54
2018-06-21T05:40:40.027Z,17.61
2018-06-21T05:41:40.010Z,17.71
2018-06-21T05:42:40.058Z,17.75
2018-06-21T05:43:40.012Z,17.79
2018-06-21T05:44:40.107Z,17.85
2018-06-21T05:45:39.998Z,17.96
2018-06-21T05:46:40.059Z,18.05
2018-06-21T05:47:40.063Z,18.10
2018-06-21T05:48:40.016Z,18.17
2018-06-21T05:49:40.130Z,18.23
2018-06-21T05:50:40.126Z,18.35
2018-06-21T05:51:40.059Z,18.38
2018-06-21T05:52:40.101Z,18.44
2018-06-21T05:53:40.137Z,18.54
2018-06-21T05:54:40.013Z,18.61
2018-06-21T05:55:40.069Z,18.69
2018-06-21T05:56:40.165Z,18.81
2018-06-21T05:57:40.074Z,18.97
2018-06-21T05:58:40.064Z,19.15
2018-06-21T05:59:40.066Z,19.31
2018-06-21T06:00:40.072Z,19.44
2018-06-21T06:01:40.132Z,19.54
2018-06-21T06:02:40.069Z,19.62
2018-06-21T06:03:40.174Z,19.64
2018-06-21T06:04:40.133Z,19.83
2018-06-21T06:05:40.201Z,19.94
2018-06-21T06:06:40.098Z,20.01
2018-06-21T06:07:40.098Z,20.16
2018-06-21T06:08:40.036Z,20.36
2018-06-21T06:09:40.070Z,20.42
2018-06-21T06:10:40.034Z,20.45
2018-06-21T06:11:40.073Z,20.47
2018-06-21T06:12:40.126Z,20.69
2018-06-21T06:13:40.126Z,20.86
2018-06-21T06:14:40.104Z,21.06
2018-06-21T06:15:40.045Z,21.25
2018-06-21T06:16:40.142Z,21.35
2018-06-21T06:17:40.081Z,21.53
2018-06-21T06:18:40.195Z,21.60
2018-06-21T06:19:40.140Z,21.79
2018-06-21T06:20:40.150Z,21.90
2018-06-21T06:21:40.077Z,22.12
2018-06-21T06:22:40.151Z,22.17
2018-06-21T06:23:40.082Z,22.09
2018-06-21T06:24:40.086Z,22.10
2018-06-21T06:25:40.154Z,22.06
2018-06-21T06:26:40.154Z,22.02
2018-06-21T06:27:40.082Z,21.86
2018-06-21T06:28:40.175Z,21.80
2018-06-21T06:29:40.155Z,21.87
2018-06-21T06:30:40.152Z,22.01
2018-06-21T06:31:40.085Z,22.00
2018-06-21T06:32:40.091Z,22.06
2018-06-21T06:33:40.157Z,22.09
2018-06-21T06:34:40.179Z,22.17
2018-06-21T06:35:40.090Z,22.31
2018-06-21T06:36:40.155Z,22.38
2018-06-21T06:37:40.091Z,22.48
2018-06-21T06:38:40.109Z,22.43
2018-06-21T06:39:40.099Z,22.39
2018-06-21T06:40:40.094Z,22.28
2018-06-21T06:41:40.131Z,22.27
2018-06-21T06:42:40.161Z,22.31
2018-06-21T06:43:40.135Z,22.31
2018-06-21T06:44:40.093Z,22.24
2018-06-21T06:45:40.097Z,22.36
2018-06-21T06:46:40.123Z,22.56
2018-06-21T06:47:40.070Z,22.61
2018-06-21T06:48:40.142Z,22.65
2018-06-21T06:49:40.135Z,22.61
2018-06-21T06:50:40.169Z,22.36
2018-06-21T06:51:40.105Z,22.32
2018-06-21T06:52:40.087Z,22.20
2018-06-21T06:53:40.193Z,22.24
2018-06-21T06:54:40.252Z,22.21
2018-06-21T06:55:40.201Z,22.20
2018-06-21T06:56:40.037Z,22.25
2018-06-21T06:57:40.165Z,22.45
2018-06-21T06:58:40.167Z,22.63
2018-06-21T06:59:40.077Z,22.76
2018-06-21T07:00:40.078Z,22.88
2018-06-21T07:01:40.164Z,22.94
2018-06-21T07:02:40.052Z,23.01
2018-06-21T07:03:40.177Z,23.05
2018-06-21T07:04:40.083Z,23.04
2018-06-21T07:05:40.061Z,23.05
2018-06-21T07:06:40.153Z,23.13
2018-06-21T07:07:40.205Z,23.19
2018-06-21T07:08:40.157Z,23.13
2018-06-21T07:09:40.178Z,23.01
2018-06-21T07:10:40.146Z,22.98
2018-06-21T07:11:40.149Z,22.95
2018-06-21T07:12:40.151Z,22.91
2018-06-21T07:13:40.146Z,22.93
2018-06-21T07:14:40.202Z,22.93
2018-06-21T07:15:40.162Z,22.97
2018-06-21T07:16:40.146Z,22.90
2018-06-21T07:17:40.215Z,22.93
2018-06-21T07:18:40.156Z,23.01
2018-06-21T07:19:40.139Z,22.98
2018-06-21T07:20:40.106Z,22.83
2018-06-21T07:21:40.190Z,22.67
2018-06-21T07:22:40.156Z,22.63
2018-06-21T07:23:40.161Z,22.57
2018-06-21T07:24:40.215Z,22.50
2018-06-21T07:25:40.196Z,22.48
2018-06-21T07:26:40.076Z,22.41
2018-06-21T07:27:40.056Z,22.35
2018-06-21T07:28:40.127Z,22.36
2018-06-21T07:29:40.092Z,22.38
2018-06-21T07:30:40.125Z,22.46
2018-06-21T07:31:40.115Z,22.39
2018-06-21T07:32:40.082Z,22.41
2018-06-21T07:33:40.142Z,22.23
2018-06-21T07:34:40.066Z,22.12
2018-06-21T07:35:40.128Z,22.12
2018-06-21T07:36:40.132Z,22.01
2018-06-21T07:37:40.195Z,21.96
2018-06-21T07:38:40.135Z,22.01
2018-06-21T07:39:40.201Z,22.01
2018-06-21T07:40:40.198Z,21.94
2018-06-21T07:41:40.141Z,21.89
2018-06-21T07:42:40.133Z,21.83
2018-06-21T07:43:40.134Z,21.79
2018-06-21T07:44:40.140Z,21.73
2018-06-21T07:45:40.203Z,21.71
2018-06-21T07:46:40.230Z,21.73
2018-06-21T07:47:40.170Z,21.79
2018-06-21T07:48:40.226Z,21.73
2018-06-21T07:50:40.241Z,21.62
2018-06-21T07:51:40.238Z,21.61
2018-06-21T07:52:40.177Z,21.61
2018-06-21T07:53:40.177Z,21.58
2018-06-21T07:54:40.116Z,21.53
2018-06-21T07:55:40.204Z,21.49
2018-06-21T07:56:40.079Z,21.42
2018-06-21T07:57:40.079Z,21.36
2018-06-21T07:58:40.138Z,21.29
2018-06-21T07:59:40.146Z,21.25
2018-06-21T08:00:40.110Z,21.20
2018-06-21T08:01:40.147Z,21.09
2018-06-21T08:02:40.190Z,20.99
2018-06-21T08:03:40.136Z,20.93
2018-06-21T08:04:40.199Z,20.90
2018-06-21T08:05:40.202Z,20.86
2018-06-21T08:06:40.152Z,20.80
2018-06-21T08:07:40.121Z,20.70
2018-06-21T08:08:40.207Z,20.58
2018-06-21T08:09:40.156Z,20.49
2018-06-21T08:10:40.213Z,20.47
2018-06-21T08:11:40.175Z,20.39
2018-06-21T08:12:40.157Z,20.36
2018-06-21T08:13:40.204Z,20.24
2018-06-21T08:14:40.212Z,20.09
2018-06-21T08:15:40.209Z,19.95
2018-06-21T08:16:40.195Z,19.74
2018-06-21T08:17:40.228Z,19.55
2018-06-21T08:18:40.251Z,19.31
2018-06-21T08:19:40.257Z,19.06
2018-06-21T08:20:40.260Z,18.91
2018-06-21T08:21:40.135Z,18.76
2018-06-21T08:22:40.132Z,18.64
2018-06-21T08:23:40.265Z,18.48
2018-06-21T08:24:40.205Z,18.34
2018-06-21T08:25:40.226Z,18.28
2018-06-21T08:26:40.248Z,18.20
2018-06-21T08:27:40.169Z,18.02
2018-06-21T08:28:40.233Z,17.94
2018-06-21T08:29:40.234Z,17.87
2018-06-21T08:30:40.237Z,17.89
2018-06-21T08:31:40.165Z,17.80
2018-06-21T08:32:40.165Z,17.75
2018-06-21T08:33:40.167Z,17.68
2018-06-21T08:34:40.173Z,17.73
2018-06-21T08:35:40.240Z,17.76
2018-06-21T08:36:40.140Z,17.55
2018-06-21T08:37:40.117Z,17.51
2018-06-21T08:38:40.188Z,17.49
2018-06-21T08:39:40.137Z,17.43
2018-06-21T08:40:40.180Z,17.40
2018-06-21T08:41:40.097Z,17.42
2018-06-21T08:42:40.138Z,17.44
2018-06-21T08:43:40.187Z,17.39
2018-06-21T08:44:40.144Z,17.39
2018-06-21T08:45:40.213Z,17.42
2018-06-21T08:46:40.234Z,17.35
2018-06-21T08:47:40.178Z,17.35
2018-06-21T08:48:40.202Z,17.29
2018-06-21T08:49:40.246Z,17.31
2018-06-21T08:50:40.238Z,17.03
2018-06-21T08:51:40.182Z,16.95
2018-06-21T08:52:40.248Z,16.81
2018-06-21T08:53:40.247Z,16.79
2018-06-21T08:54:40.185Z,16.70
2018-06-21T08:55:40.271Z,16.65
2018-06-21T08:56:40.241Z,16.59
2018-06-21T08:57:40.184Z,16.55
2018-06-21T08:58:40.184Z,16.50
2018-06-21T08:59:40.183Z,16.47
2018-06-21T09:00:40.186Z,16.44
2018-06-21T09:01:40.252Z,16.47
2018-06-21T09:02:40.218Z,16.39
2018-06-21T09:03:40.285Z,16.43
2018-06-21T09:04:40.261Z,16.46
2018-06-21T09:05:40.190Z,16.44
2018-06-21T09:06:40.255Z,16.41
2018-06-21T09:07:40.145Z,16.43
2018-06-21T09:08:40.243Z,16.41
2018-06-21T09:09:40.247Z,16.38
2018-06-21T09:10:40.182Z,16.41
2018-06-21T09:11:40.238Z,16.38
2018-06-21T09:12:40.219Z,16.43
2018-06-21T09:13:40.130Z,16.35
2018-06-21T09:14:40.246Z,16.35
2018-06-21T09:15:40.201Z,16.27
2018-06-21T09:16:40.224Z,16.28
2018-06-21T09:17:40.167Z,16.27
2018-06-21T09:18:40.296Z,16.29
2018-06-21T09:19:40.230Z,16.22
2018-06-21T09:20:40.167Z,16.14
2018-06-21T09:21:40.301Z,16.13
2018-06-21T09:22:40.309Z,16.20
2018-06-21T09:23:40.230Z,16.18
2018-06-21T09:24:40.285Z,16.24
2018-06-21T09:25:40.307Z,16.25
2018-06-21T09:26:40.236Z,16.21
2018-06-21T09:27:40.235Z,16.20
2018-06-21T09:28:40.272Z,16.32
2018-06-21T09:29:40.291Z,16.32
2018-06-21T09:30:40.308Z,16.36
2018-06-21T09:31:40.303Z,16.36
2018-06-21T09:32:40.240Z,16.31
2018-06-21T09:33:40.233Z,16.28
2018-06-21T09:34:40.297Z,16.25
2018-06-21T09:35:40.302Z,16.25
2018-06-21T09:36:40.177Z,16.25
2018-06-21T09:37:40.312Z,16.25
2018-06-21T09:38:40.239Z,16.18
2018-06-21T09:39:40.251Z,16.16
2018-06-21T09:40:40.298Z,16.14
2018-06-21T09:41:40.180Z,16.16
2018-06-21T09:42:40.236Z,16.14
2018-06-21T09:43:50.296Z,16.20
2018-06-21T09:44:40.242Z,16.25
2018-06-21T09:45:40.281Z,16.29
2018-06-21T09:46:40.219Z,16.50
2018-06-21T09:47:40.241Z,16.73
2018-06-21T09:48:40.283Z,16.97
2018-06-21T09:49:40.189Z,17.13
2018-06-21T09:50:40.266Z,17.33
2018-06-21T09:51:40.307Z,17.47
2018-06-21T09:52:40.247Z,17.54
2018-06-21T09:53:40.260Z,17.53
2018-06-21T09:54:40.302Z,17.66
2018-06-21T09:55:40.246Z,17.71
2018-06-21T09:56:40.284Z,17.80
2018-06-21T09:57:40.227Z,18.02
2018-06-21T09:58:40.246Z,18.12
2018-06-21T09:59:40.271Z,18.17
2018-06-21T10:00:40.195Z,18.05
2018-06-21T10:01:40.257Z,18.05
2018-06-21T10:02:40.311Z,17.92
2018-06-21T10:03:40.294Z,17.76
2018-06-21T10:04:40.260Z,17.65
2018-06-21T10:05:40.195Z,17.65
2018-06-21T10:06:40.321Z,17.51
2018-06-21T10:07:40.232Z,17.44
2018-06-21T10:08:40.231Z,17.39
2018-06-21T10:09:40.299Z,17.20
2018-06-21T10:10:40.229Z,17.16
2018-06-21T10:11:40.234Z,17.16
2018-06-21T10:12:40.237Z,17.20
2018-06-21T10:13:40.194Z,17.21
2018-06-21T10:14:40.234Z,17.13
2018-06-21T10:15:40.326Z,17.20
2018-06-21T10:16:40.302Z,17.14
2018-06-21T10:17:40.244Z,17.08
2018-06-21T10:18:40.307Z,17.05
2018-06-21T10:19:40.308Z,17.02
2018-06-21T10:20:40.240Z,17.05
2018-06-21T10:21:40.237Z,17.10
2018-06-21T10:22:40.305Z,17.18
2018-06-21T10:23:40.236Z,17.24
2018-06-21T10:24:40.308Z,17.28
2018-06-21T10:25:40.241Z,17.33
2018-06-21T10:26:40.310Z,17.36
2018-06-21T10:27:40.335Z,17.46
2018-06-21T10:28:40.345Z,17.53
2018-06-21T10:29:40.344Z,17.54
2018-06-21T10:30:40.310Z,17.66
2018-06-21T10:31:40.216Z,17.72
2018-06-21T10:32:40.344Z,17.91
2018-06-21T10:33:40.252Z,18.00
2018-06-21T10:34:40.316Z,18.12
2018-06-21T10:35:40.341Z,18.17
2018-06-21T10:36:40.285Z,18.57
2018-06-21T10:37:40.256Z,18.81
2018-06-21T10:38:40.322Z,18.90
2018-06-21T10:39:40.318Z,19.02
2018-06-21T10:40:40.253Z,19.13
2018-06-21T10:41:40.331Z,19.20
2018-06-21T10:42:40.351Z,19.38
2018-06-21T10:43:40.322Z,19.36
2018-06-21T10:44:40.250Z,19.53
2018-06-21T10:45:40.320Z,19.42
2018-06-21T10:46:40.257Z,19.62
2018-06-21T10:47:40.336Z,19.85
2018-06-21T10:48:40.261Z,20.05
2018-06-21T10:49:40.345Z,19.98
2018-06-21T10:50:40.285Z,19.91
2018-06-21T10:51:40.355Z,19.95
2018-06-21T10:52:40.298Z,20.17
2018-06-21T10:53:40.365Z,20.46
2018-06-21T10:54:40.360Z,20.64
2018-06-21T10:55:40.360Z,20.50
2018-06-21T10:56:40.283Z,20.49
2018-06-21T10:57:40.259Z,20.36
2018-06-21T10:58:40.264Z,20.14
2018-06-21T10:59:40.330Z,20.21
2018-06-21T11:00:40.337Z,20.23
2018-06-21T11:01:40.347Z,20.21
2018-06-21T11:02:40.266Z,20.16
2018-06-21T11:03:40.346Z,19.81
2018-06-21T11:04:40.270Z,19.65
2018-06-21T11:05:40.338Z,19.64
2018-06-21T11:06:40.272Z,19.72
2018-06-21T11:07:40.270Z,19.77
2018-06-21T11:08:40.388Z,19.88
2018-06-21T11:09:40.351Z,19.95
2018-06-21T11:10:40.274Z,19.88
2018-06-21T11:11:40.273Z,19.62
2018-06-21T11:12:40.342Z,19.60
2018-06-21T11:13:40.278Z,19.49
2018-06-21T11:14:40.360Z,19.53
2018-06-21T11:15:40.292Z,19.50
2018-06-21T11:16:40.362Z,19.49
2018-06-21T11:17:40.377Z,19.36
2018-06-21T11:18:40.313Z,19.39
2018-06-21T11:19:40.374Z,19.28
2018-06-21T11:20:40.250Z,19.31
2018-06-21T11:21:40.307Z,19.27
2018-06-21T11:22:40.378Z,19.20
2018-06-21T11:23:40.312Z,19.17
2018-06-21T11:24:40.376Z,19.21
2018-06-21T11:25:40.317Z,19.25
2018-06-21T11:26:40.413Z,19.33
2018-06-21T11:27:40.343Z,19.27
2018-06-21T11:28:40.276Z,19.33
2018-06-21T11:29:40.285Z,19.51
2018-06-21T11:30:40.351Z,19.76
2018-06-21T11:31:40.351Z,19.99
2018-06-21T11:32:40.354Z,20.09
2018-06-21T11:33:40.293Z,20.02
2018-06-21T11:34:40.285Z,19.61
2018-06-21T11:35:40.352Z,19.28
2018-06-21T11:36:40.292Z,18.86
2018-06-21T11:37:40.354Z,18.41
2018-06-21T11:38:40.298Z,18.17
2018-06-21T11:39:40.357Z,18.10
2018-06-21T11:40:40.363Z,18.24
2018-06-21T11:41:40.359Z,18.41
2018-06-21T11:42:40.294Z,18.61
2018-06-21T11:43:40.295Z,18.87
2018-06-21T11:44:40.325Z,18.72
2018-06-21T11:45:40.294Z,18.65
2018-06-21T11:46:40.423Z,18.95
2018-06-21T11:47:40.361Z,19.10
2018-06-21T11:48:40.294Z,19.25
2018-06-21T11:49:40.367Z,19.12
2018-06-21T11:50:40.297Z,18.84
2018-06-21T11:51:40.303Z,18.69
2018-06-21T11:52:40.366Z,18.36
2018-06-21T11:53:40.298Z,18.31
2018-06-21T11:54:40.365Z,18.50
2018-06-21T11:55:40.327Z,18.66
2018-06-21T11:56:40.300Z,18.79
2018-06-21T11:57:40.339Z,18.80
2018-06-21T11:58:40.346Z,18.98
2018-06-21T11:59:40.327Z,19.10
2018-06-21T12:00:40.315Z,19.39
2018-06-21T12:01:40.431Z,19.47
2018-06-21T12:02:40.398Z,19.50
2018-06-21T12:03:40.336Z,19.55
2018-06-21T12:04:40.379Z,19.76
2018-06-21T12:05:40.416Z,19.83
2018-06-21T12:06:40.417Z,20.05
2018-06-21T12:07:40.362Z,20.27
2018-06-21T12:08:40.305Z,20.16
2018-06-21T12:09:40.242Z,20.16
2018-06-21T12:10:40.312Z,20.12
2018-06-21T12:11:40.301Z,20.10
2018-06-21T12:12:40.270Z,19.85
2018-06-21T12:13:40.312Z,19.70
2018-06-21T12:14:40.251Z,19.58
2018-06-21T12:15:40.254Z,19.43
2018-06-21T12:16:40.280Z,19.28
2018-06-21T12:17:40.413Z,19.25
2018-06-21T12:18:40.430Z,19.25
2018-06-21T12:19:40.385Z,19.31
2018-06-21T12:20:40.360Z,19.55
2018-06-21T12:21:40.364Z,19.88
2018-06-21T12:22:40.289Z,20.07
2018-06-21T12:23:40.364Z,20.20
2018-06-21T12:24:40.362Z,20.41
2018-06-21T12:25:40.362Z,20.43
2018-06-21T12:26:40.392Z,20.38
2018-06-21T12:27:40.326Z,20.56
2018-06-21T12:28:40.316Z,20.60
2018-06-21T12:29:40.296Z,20.56
2018-06-21T12:30:40.368Z,20.80
2018-06-21T12:31:40.352Z,20.70
2018-06-21T12:32:40.360Z,20.64
2018-06-21T12:33:40.303Z,20.56
2018-06-21T12:34:40.417Z,20.39
2018-06-21T12:35:40.352Z,20.35
2018-06-21T12:36:40.436Z,20.36
2018-06-21T12:37:40.343Z,20.17
2018-06-21T12:38:40.304Z,20.25
2018-06-21T12:39:40.300Z,20.57
2018-06-21T12:40:40.343Z,20.31
2018-06-21T12:41:40.300Z,20.14
2018-06-21T12:42:40.345Z,20.17
2018-06-21T12:43:40.305Z,20.32
2018-06-21T12:44:40.347Z,20.36
2018-06-21T12:45:40.344Z,20.61
2018-06-21T12:46:40.361Z,20.77
2018-06-21T12:47:40.335Z,20.94
2018-06-21T12:48:40.341Z,20.70
2018-06-21T12:49:40.341Z,20.42
2018-06-21T12:50:40.408Z,20.45
2018-06-21T12:51:40.406Z,20.42
2018-06-21T12:52:40.347Z,20.69
2018-06-21T12:53:40.443Z,21.01
2018-06-21T12:54:40.411Z,21.13
2018-06-21T12:55:40.343Z,20.98
2018-06-21T12:56:40.343Z,21.05
2018-06-21T12:57:40.438Z,20.54
2018-06-21T12:58:40.388Z,20.47
2018-06-21T12:59:40.443Z,20.57
2018-06-21T13:00:40.363Z,20.70
2018-06-21T13:01:40.380Z,20.90
2018-06-21T13:02:40.437Z,20.94
2018-06-21T13:03:40.414Z,20.93